aviador You're here:

PABI Decoded Metar

DELTA JUNCTION in AK, USA
Report Time2018-05-23 05:53:00
UTC Time2018-05-23 06:46:23
Flight Rules vfr VFR
Wind210° at 09 kt
W.Decomp.*RWY 19: 9.0 kt HW 0.5 kt LCW
RWY 25: 4.1 kt HW 8 kt LCW
RWY 10: 0.5 kt HW 9.0 kt RCW
W.Rank210° ranks 17
Current wind is above 210° avg. (6.1)
Visibility9999 m
Phenomena:N/A
Clouds:Broken 060 Hf
Expected CloudBase > 1,200 ft AGL from Temp-Dew spread
Ceiling6,000 ft
Temp09°C (ISA -3)
Dew Point06°C (82% RH)
AAT4.9°C
QNH1005 hPa
Density Alt1,253 ft
Elevation1,266 ft
Report Wrong Elevation
Raw Report
PABI 230553Z AUTO 21009KT 10SM BKN060 09/06 A2969=

Extra information for PABI:More info

Metar Taf Metar & Taf Last 4 Metars F.Rules Stats Wind Profile Meteogram Temp Stats Airport Information Weather charts Add Link Nearby VenuesMetar ALERT Operation Metar Decoded Social comments

AIRNAV info for PABI